Del Norte International Airport
MMAN : now visible

Airfield :











YOU CAN JOIN US ON...

 
LOGIN :

Register | Disclaimer

   EN    FR    IT 

 









Legend :    VFR   Marginal VFR   IFR   Intensive IFR   Very Intensive IFR
Visi :
Ceiling :
>= 8 km
>= 3000ft
5 to 8 km
1000 to 3000 ft
1500m to 5 km
500 to 1000 ft
800 to 1500m
200 to 500 ft
< 800m
< 200 ft
Symbols :   Thunderstorms  Fog  Heavy snow  Heavy precipitations  Wind > 20 kt






- Airport Elevation : 1476 ft
- IATA code : NTR


MMAN - Del Norte International

CURRENT METAR :
  • 232240Z 13008KT 15SM BKN030 27/17 A2994 RMK 8/500

EXPIRED METARs :
  • 232141Z 12008KT 12SM BKN030 27/16 A2995 RMK 8/500
  • 232040Z 12008KT 12SM BKN030 27/16 A2997 RMK SLP/// 5//// 9// 8/500

TAF TAF MMAN
Valid from the 23 at 18:00 until the 24 at 18:00 UTC


231726Z 2318/2418 13015KT P6SM BKN030 BKN230
BECMG 2401/2402 00000KT
FM241200 00000KT P6SM BKN100 BKN250
FM241600 14010KT P6SM SCT025 SCT100



MET'MAP, your aeronautical weather chart ! - Copyright ORBIFLY December 2007 - Disclaimer

ORBIFLY MET'MAP TEAM :

Programming & Development : Alexandra Zaïnal
Concept & Development : Baudouin d'Aumeries
Co-Development & Prog : Marc-Olivier Méhu
Technical & hardware support : Manuel Goepfert

Contact : metmap@orbifly.com




SOURCES & CREDITS :

   NOAA       Earth
Advisory